GLD166 SJIR-SNXQ
Flight info
| Callsign | GLD166 |
|---|---|
| Flight time | 1h 10m |
| Altitude | 6500 |
| Route | 1306S04109W 1238S04131W 1224S04146W 1149S04205W 1101S04226W |
| Aircraft | C182/M-SDFGIRY/S |
Departure
| Time | 2026-04-14 14:18 |
|---|---|
| Airport | Engenheiro Joaquim Martins Airport (SJIR) |
Arrival
| Time | 2026-04-14 15:28 |
|---|---|
| Airport | Xique-Xique Airport (SNXQ) |
| Time | Latitude | Longitude | Altitude | Speed | Heading |
|---|---|---|---|---|---|
| 2026-04-14 14:15 | -13.31556 | -40.87703 | 1753 ft | 0 kts | 197° |
| 2026-04-14 14:17 | -13.31517 | -40.87735 | 1751 ft | 19 kts | 356° |
| 2026-04-14 14:17 | -13.31242 | -40.87800 | 1739 ft | 64 kts | 347° |
| 2026-04-14 14:17 | -13.30696 | -40.87904 | 1824 ft | 84 kts | 347° |
| 2026-04-14 14:17 | -13.30134 | -40.88130 | 2071 ft | 82 kts | 331° |
| 2026-04-14 14:18 | -13.29908 | -40.88623 | 2228 ft | 89 kts | 251° |
| 2026-04-14 14:18 | -13.30132 | -40.89310 | 2333 ft | 112 kts | 251° |
| 2026-04-14 14:18 | -13.30320 | -40.90138 | 2465 ft | 126 kts | 263° |
| 2026-04-14 14:18 | -13.29943 | -40.91023 | 2578 ft | 144 kts | 300° |
| 2026-04-14 14:19 | -13.29450 | -40.91928 | 2759 ft | 146 kts | 296° |
| 2026-04-14 14:19 | -13.28975 | -40.92836 | 2967 ft | 142 kts | 297° |
| 2026-04-14 14:19 | -13.28503 | -40.93730 | 3169 ft | 144 kts | 296° |
| 2026-04-14 14:19 | -13.28004 | -40.94641 | 3364 ft | 147 kts | 297° |
| 2026-04-14 14:20 | -13.27502 | -40.95577 | 3561 ft | 151 kts | 297° |
| 2026-04-14 14:20 | -13.27020 | -40.96527 | 3755 ft | 150 kts | 297° |
| 2026-04-14 14:20 | -13.26538 | -40.97480 | 3947 ft | 151 kts | 297° |
| 2026-04-14 14:20 | -13.26058 | -40.98434 | 4149 ft | 149 kts | 297° |
| 2026-04-14 14:21 | -13.25600 | -40.99373 | 4340 ft | 149 kts | 296° |
| 2026-04-14 14:21 | -13.25143 | -41.00309 | 4534 ft | 145 kts | 296° |
| 2026-04-14 14:21 | -13.24697 | -41.01232 | 4731 ft | 143 kts | 297° |
| 2026-04-14 14:21 | -13.24251 | -41.02148 | 4916 ft | 143 kts | 298° |
| 2026-04-14 14:22 | -13.23821 | -41.03070 | 5110 ft | 143 kts | 296° |
| 2026-04-14 14:22 | -13.23391 | -41.03984 | 5296 ft | 141 kts | 296° |
| 2026-04-14 14:22 | -13.22961 | -41.04895 | 5449 ft | 146 kts | 296° |
| 2026-04-14 14:22 | -13.22406 | -41.05809 | 5425 ft | 156 kts | 319° |
| 2026-04-14 14:23 | -13.21500 | -41.06454 | 5432 ft | 161 kts | 328° |
| 2026-04-14 14:23 | -13.20565 | -41.07108 | 5442 ft | 164 kts | 328° |
| 2026-04-14 14:23 | -13.19613 | -41.07773 | 5447 ft | 167 kts | 328° |
| 2026-04-14 14:23 | -13.18652 | -41.08445 | 5451 ft | 168 kts | 328° |
| 2026-04-14 14:24 | -13.17685 | -41.09117 | 5452 ft | 168 kts | 329° |
| 2026-04-14 14:24 | -13.16720 | -41.09794 | 5451 ft | 168 kts | 328° |
| 2026-04-14 14:24 | -13.15760 | -41.10470 | 5452 ft | 167 kts | 328° |
| 2026-04-14 14:24 | -13.14822 | -41.11134 | 5450 ft | 166 kts | 328° |
| 2026-04-14 14:25 | -13.13866 | -41.11809 | 5464 ft | 169 kts | 328° |
| 2026-04-14 14:25 | -13.12890 | -41.12493 | 5456 ft | 170 kts | 328° |
| 2026-04-14 14:25 | -13.11917 | -41.13169 | 5451 ft | 168 kts | 328° |
| 2026-04-14 14:25 | -13.10954 | -41.13833 | 5452 ft | 167 kts | 328° |
| 2026-04-14 14:26 | -13.09995 | -41.14500 | 5452 ft | 166 kts | 328° |
| 2026-04-14 14:26 | -13.09041 | -41.15166 | 5452 ft | 166 kts | 328° |
| 2026-04-14 14:26 | -13.08089 | -41.15835 | 5454 ft | 166 kts | 328° |
| 2026-04-14 14:26 | -13.07135 | -41.16503 | 5451 ft | 166 kts | 328° |
| 2026-04-14 14:27 | -13.06182 | -41.17169 | 5452 ft | 166 kts | 328° |
| 2026-04-14 14:27 | -13.05218 | -41.17837 | 5452 ft | 167 kts | 328° |
| 2026-04-14 14:27 | -13.04256 | -41.18509 | 5456 ft | 168 kts | 328° |
| 2026-04-14 14:27 | -13.03291 | -41.19183 | 5454 ft | 168 kts | 328° |
| 2026-04-14 14:28 | -13.02327 | -41.19862 | 5455 ft | 168 kts | 328° |
| 2026-04-14 14:28 | -13.01370 | -41.20547 | 5454 ft | 167 kts | 328° |
| 2026-04-14 14:28 | -13.00419 | -41.21235 | 5454 ft | 167 kts | 328° |
| 2026-04-14 14:28 | -12.99475 | -41.21924 | 5454 ft | 166 kts | 328° |
| 2026-04-14 14:29 | -12.98531 | -41.22613 | 5455 ft | 167 kts | 328° |
| 2026-04-14 14:29 | -12.97578 | -41.23304 | 5453 ft | 168 kts | 328° |
| 2026-04-14 14:29 | -12.96630 | -41.23987 | 5455 ft | 169 kts | 328° |
| 2026-04-14 14:29 | -12.95666 | -41.24686 | 5455 ft | 169 kts | 327° |
| 2026-04-14 14:30 | -12.94706 | -41.25388 | 5454 ft | 170 kts | 328° |
| 2026-04-14 14:30 | -12.93748 | -41.26093 | 5453 ft | 169 kts | 328° |
| 2026-04-14 14:30 | -12.92796 | -41.26791 | 5443 ft | 166 kts | 327° |
| 2026-04-14 14:30 | -12.91857 | -41.27468 | 5450 ft | 166 kts | 327° |
| 2026-04-14 14:31 | -12.90920 | -41.28142 | 5445 ft | 163 kts | 327° |
| 2026-04-14 14:31 | -12.89989 | -41.28813 | 5450 ft | 165 kts | 328° |
| 2026-04-14 14:31 | -12.89052 | -41.29501 | 5450 ft | 167 kts | 328° |
| 2026-04-14 14:31 | -12.88110 | -41.30195 | 5452 ft | 166 kts | 328° |
| 2026-04-14 14:32 | -12.87166 | -41.30886 | 5454 ft | 167 kts | 327° |
| 2026-04-14 14:32 | -12.86220 | -41.31586 | 5450 ft | 168 kts | 328° |
| 2026-04-14 14:32 | -12.85269 | -41.32290 | 5455 ft | 170 kts | 327° |
| 2026-04-14 14:32 | -12.84314 | -41.33002 | 5456 ft | 170 kts | 327° |
| 2026-04-14 14:33 | -12.83356 | -41.33716 | 5452 ft | 170 kts | 327° |
| 2026-04-14 14:33 | -12.82409 | -41.34420 | 5454 ft | 170 kts | 327° |
| 2026-04-14 14:33 | -12.81452 | -41.35135 | 5455 ft | 170 kts | 328° |
| 2026-04-14 14:33 | -12.80495 | -41.35853 | 5459 ft | 170 kts | 328° |
| 2026-04-14 14:34 | -12.78606 | -41.37294 | 5454 ft | 169 kts | 327° |
| 2026-04-14 14:34 | -12.77663 | -41.38010 | 5458 ft | 168 kts | 327° |
| 2026-04-14 14:34 | -12.76717 | -41.38718 | 5457 ft | 168 kts | 327° |
| 2026-04-14 14:35 | -12.75776 | -41.39422 | 5457 ft | 167 kts | 328° |
| 2026-04-14 14:35 | -12.74836 | -41.40129 | 5455 ft | 168 kts | 327° |
| 2026-04-14 14:35 | -12.73908 | -41.40826 | 5448 ft | 165 kts | 328° |
| 2026-04-14 14:35 | -12.72977 | -41.41533 | 5458 ft | 165 kts | 327° |
| 2026-04-14 14:36 | -12.72065 | -41.42223 | 5458 ft | 166 kts | 327° |
| 2026-04-14 14:36 | -12.71119 | -41.42938 | 5455 ft | 167 kts | 327° |
| 2026-04-14 14:36 | -12.70183 | -41.43650 | 5456 ft | 168 kts | 327° |
| 2026-04-14 14:36 | -12.69255 | -41.44354 | 5461 ft | 169 kts | 327° |
| 2026-04-14 14:37 | -12.68314 | -41.45072 | 5452 ft | 167 kts | 327° |
| 2026-04-14 14:37 | -12.67388 | -41.45781 | 5458 ft | 166 kts | 327° |
| 2026-04-14 14:37 | -12.66461 | -41.46486 | 5450 ft | 165 kts | 327° |
| 2026-04-14 14:37 | -12.65553 | -41.47187 | 5451 ft | 162 kts | 327° |
| 2026-04-14 14:38 | -12.64647 | -41.47883 | 5457 ft | 164 kts | 327° |
| 2026-04-14 14:38 | -12.63761 | -41.48571 | 5443 ft | 156 kts | 327° |
| 2026-04-14 14:38 | -12.62887 | -41.49243 | 5441 ft | 159 kts | 327° |
| 2026-04-14 14:38 | -12.61986 | -41.49930 | 5444 ft | 163 kts | 327° |
| 2026-04-14 14:39 | -12.61072 | -41.50626 | 5446 ft | 165 kts | 327° |
| 2026-04-14 14:39 | -12.60145 | -41.51332 | 5447 ft | 167 kts | 327° |
| 2026-04-14 14:39 | -12.59205 | -41.52044 | 5452 ft | 169 kts | 326° |
| 2026-04-14 14:39 | -12.58254 | -41.52751 | 5455 ft | 173 kts | 327° |
| 2026-04-14 14:40 | -12.57277 | -41.53475 | 5455 ft | 173 kts | 327° |
| 2026-04-14 14:40 | -12.56308 | -41.54208 | 5456 ft | 173 kts | 327° |
| 2026-04-14 14:40 | -12.55340 | -41.54947 | 5456 ft | 175 kts | 327° |
| 2026-04-14 14:40 | -12.54370 | -41.55697 | 5457 ft | 174 kts | 327° |
| 2026-04-14 14:41 | -12.53408 | -41.56444 | 5456 ft | 173 kts | 326° |
| 2026-04-14 14:41 | -12.52451 | -41.57188 | 5453 ft | 172 kts | 327° |
| 2026-04-14 14:41 | -12.51497 | -41.57925 | 5454 ft | 172 kts | 327° |
| 2026-04-14 14:41 | -12.50545 | -41.58660 | 5452 ft | 171 kts | 327° |
| 2026-04-14 14:42 | -12.49592 | -41.59397 | 5453 ft | 170 kts | 327° |
| 2026-04-14 14:42 | -12.48663 | -41.60118 | 5458 ft | 170 kts | 326° |
| 2026-04-14 14:42 | -12.47718 | -41.60848 | 5456 ft | 170 kts | 327° |
| 2026-04-14 14:42 | -12.46775 | -41.61578 | 5453 ft | 169 kts | 326° |
| 2026-04-14 14:43 | -12.45837 | -41.62303 | 5453 ft | 169 kts | 327° |
| 2026-04-14 14:43 | -12.44899 | -41.63032 | 5454 ft | 169 kts | 326° |
| 2026-04-14 14:43 | -12.43962 | -41.63761 | 5454 ft | 169 kts | 326° |
| 2026-04-14 14:43 | -12.43027 | -41.64489 | 5453 ft | 168 kts | 327° |
| 2026-04-14 14:44 | -12.42096 | -41.65214 | 5452 ft | 168 kts | 327° |
| 2026-04-14 14:44 | -12.41166 | -41.65937 | 5452 ft | 168 kts | 327° |
| 2026-04-14 14:44 | -12.40234 | -41.66664 | 5452 ft | 169 kts | 327° |
| 2026-04-14 14:44 | -12.39305 | -41.67389 | 5451 ft | 168 kts | 326° |
| 2026-04-14 14:45 | -12.38370 | -41.68115 | 5457 ft | 170 kts | 327° |
| 2026-04-14 14:45 | -12.37430 | -41.68846 | 5452 ft | 170 kts | 326° |
| 2026-04-14 14:45 | -12.36504 | -41.69569 | 5450 ft | 169 kts | 326° |
| 2026-04-14 14:45 | -12.35570 | -41.70298 | 5451 ft | 169 kts | 327° |
| 2026-04-14 14:46 | -12.34636 | -41.71025 | 5451 ft | 168 kts | 326° |
| 2026-04-14 14:46 | -12.33705 | -41.71750 | 5450 ft | 167 kts | 326° |
| 2026-04-14 14:46 | -12.32777 | -41.72475 | 5450 ft | 169 kts | 327° |
| 2026-04-14 14:46 | -12.31837 | -41.73210 | 5451 ft | 171 kts | 327° |
| 2026-04-14 14:47 | -12.30888 | -41.73952 | 5454 ft | 172 kts | 326° |
| 2026-04-14 14:47 | -12.29941 | -41.74697 | 5451 ft | 172 kts | 326° |
| 2026-04-14 14:47 | -12.28995 | -41.75443 | 5451 ft | 171 kts | 327° |
| 2026-04-14 14:47 | -12.28046 | -41.76187 | 5449 ft | 173 kts | 326° |
| 2026-04-14 14:48 | -12.27101 | -41.76931 | 5447 ft | 170 kts | 327° |
| 2026-04-14 14:48 | -12.26165 | -41.77671 | 5446 ft | 170 kts | 326° |
| 2026-04-14 14:48 | -12.25242 | -41.78399 | 5447 ft | 169 kts | 326° |
| 2026-04-14 14:48 | -12.24308 | -41.79138 | 5446 ft | 169 kts | 326° |
| 2026-04-14 14:49 | -12.23383 | -41.79869 | 5438 ft | 166 kts | 326° |
| 2026-04-14 14:49 | -12.22465 | -41.80590 | 5444 ft | 167 kts | 326° |
| 2026-04-14 14:49 | -12.21534 | -41.81318 | 5439 ft | 169 kts | 326° |
| 2026-04-14 14:49 | -12.20604 | -41.82050 | 5440 ft | 169 kts | 326° |
| 2026-04-14 14:50 | -12.19683 | -41.82775 | 5440 ft | 166 kts | 326° |
| 2026-04-14 14:50 | -12.19074 | -41.83253 | 5443 ft | 167 kts | 326° |
| 2026-04-14 14:50 | -12.17849 | -41.84219 | 5438 ft | 164 kts | 326° |
| 2026-04-14 14:50 | -12.17247 | -41.84694 | 5430 ft | 165 kts | 326° |
| 2026-04-14 14:51 | -12.16330 | -41.85417 | 5434 ft | 168 kts | 326° |
| 2026-04-14 14:51 | -12.15345 | -41.86032 | 5430 ft | 166 kts | 338° |
| 2026-04-14 14:51 | -12.14310 | -41.86557 | 5428 ft | 167 kts | 339° |
| 2026-04-14 14:51 | -12.13270 | -41.87093 | 5430 ft | 167 kts | 338° |
| 2026-04-14 14:52 | -12.12236 | -41.87630 | 5433 ft | 167 kts | 338° |
| 2026-04-14 14:52 | -12.11204 | -41.88164 | 5433 ft | 166 kts | 338° |
| 2026-04-14 14:52 | -12.10164 | -41.88700 | 5438 ft | 169 kts | 339° |
| 2026-04-14 14:52 | -12.09115 | -41.89243 | 5438 ft | 169 kts | 338° |
| 2026-04-14 14:53 | -12.08060 | -41.89783 | 5439 ft | 170 kts | 338° |
| 2026-04-14 14:53 | -12.07000 | -41.90322 | 5440 ft | 170 kts | 338° |
| 2026-04-14 14:53 | -12.05938 | -41.90863 | 5441 ft | 170 kts | 337° |
| 2026-04-14 14:53 | -12.04880 | -41.91398 | 5428 ft | 168 kts | 338° |
| 2026-04-14 14:54 | -12.03842 | -41.91926 | 5431 ft | 165 kts | 338° |
| 2026-04-14 14:54 | -12.02812 | -41.92452 | 5431 ft | 167 kts | 338° |
| 2026-04-14 14:54 | -12.01772 | -41.92988 | 5435 ft | 168 kts | 338° |
| 2026-04-14 14:54 | -12.00717 | -41.93527 | 5412 ft | 167 kts | 338° |
| 2026-04-14 14:55 | -11.99700 | -41.94054 | 5428 ft | 165 kts | 338° |
| 2026-04-14 14:55 | -11.98672 | -41.94597 | 5428 ft | 168 kts | 337° |
| 2026-04-14 14:55 | -11.97621 | -41.95144 | 5427 ft | 170 kts | 338° |
| 2026-04-14 14:55 | -11.96565 | -41.95691 | 5421 ft | 170 kts | 338° |
| 2026-04-14 14:56 | -11.94491 | -41.96755 | 5422 ft | 164 kts | 338° |
| 2026-04-14 14:56 | -11.93476 | -41.97267 | 5423 ft | 163 kts | 338° |
| 2026-04-14 14:56 | -11.92447 | -41.97780 | 5419 ft | 166 kts | 338° |
| 2026-04-14 14:57 | -11.91403 | -41.98300 | 5419 ft | 167 kts | 338° |
| 2026-04-14 14:57 | -11.90361 | -41.98822 | 5426 ft | 167 kts | 337° |
| 2026-04-14 14:57 | -11.89317 | -41.99348 | 5427 ft | 168 kts | 338° |
| 2026-04-14 14:57 | -11.88267 | -41.99891 | 5423 ft | 170 kts | 338° |
| 2026-04-14 14:58 | -11.87218 | -42.00441 | 5423 ft | 169 kts | 337° |
| 2026-04-14 14:58 | -11.86184 | -42.00979 | 5427 ft | 169 kts | 337° |
| 2026-04-14 14:58 | -11.85125 | -42.01512 | 5424 ft | 169 kts | 338° |
| 2026-04-14 14:58 | -11.84072 | -42.02050 | 5421 ft | 170 kts | 337° |
| 2026-04-14 14:59 | -11.83028 | -42.02603 | 5419 ft | 168 kts | 337° |
| 2026-04-14 14:59 | -11.81995 | -42.03154 | 5420 ft | 166 kts | 337° |
| 2026-04-14 14:59 | -11.80975 | -42.03699 | 5413 ft | 165 kts | 337° |
| 2026-04-14 14:59 | -11.79960 | -42.04243 | 5413 ft | 164 kts | 338° |
| 2026-04-14 15:00 | -11.78949 | -42.04780 | 5412 ft | 163 kts | 337° |
| 2026-04-14 15:00 | -11.77940 | -42.05307 | 5412 ft | 163 kts | 336° |
| 2026-04-14 15:00 | -11.76927 | -42.05823 | 5412 ft | 163 kts | 338° |
| 2026-04-14 15:00 | -11.75926 | -42.06345 | 5414 ft | 164 kts | 338° |
| 2026-04-14 15:01 | -11.74911 | -42.06887 | 5409 ft | 165 kts | 337° |
| 2026-04-14 15:01 | -11.73884 | -42.07416 | 5409 ft | 165 kts | 337° |
| 2026-04-14 15:01 | -11.72851 | -42.07939 | 5410 ft | 166 kts | 337° |
| 2026-04-14 15:01 | -11.71817 | -42.08470 | 5405 ft | 167 kts | 338° |
| 2026-04-14 15:02 | -11.70783 | -42.09014 | 5403 ft | 167 kts | 337° |
| 2026-04-14 15:02 | -11.69748 | -42.09552 | 5407 ft | 167 kts | 338° |
| 2026-04-14 15:02 | -11.68713 | -42.10094 | 5407 ft | 167 kts | 337° |
| 2026-04-14 15:02 | -11.67675 | -42.10637 | 5413 ft | 168 kts | 337° |
| 2026-04-14 15:03 | -11.66624 | -42.11182 | 5413 ft | 169 kts | 338° |
| 2026-04-14 15:03 | -11.65575 | -42.11726 | 5413 ft | 169 kts | 337° |
| 2026-04-14 15:03 | -11.64529 | -42.12272 | 5410 ft | 168 kts | 338° |
| 2026-04-14 15:03 | -11.63492 | -42.12818 | 5406 ft | 167 kts | 337° |
| 2026-04-14 15:04 | -11.62472 | -42.13352 | 5406 ft | 167 kts | 337° |
| 2026-04-14 15:04 | -11.61440 | -42.13895 | 5402 ft | 167 kts | 337° |
| 2026-04-14 15:04 | -11.60406 | -42.14437 | 5404 ft | 167 kts | 336° |
| 2026-04-14 15:04 | -11.59373 | -42.14979 | 5402 ft | 168 kts | 337° |
| 2026-04-14 15:05 | -11.58332 | -42.15525 | 5408 ft | 169 kts | 337° |
| 2026-04-14 15:05 | -11.57293 | -42.16074 | 5401 ft | 168 kts | 337° |
| 2026-04-14 15:05 | -11.56261 | -42.16625 | 5407 ft | 167 kts | 337° |
| 2026-04-14 15:05 | -11.55224 | -42.17172 | 5409 ft | 168 kts | 338° |
| 2026-04-14 15:06 | -11.54178 | -42.17718 | 5405 ft | 169 kts | 338° |
| 2026-04-14 15:06 | -11.53131 | -42.18264 | 5403 ft | 168 kts | 338° |
| 2026-04-14 15:06 | -11.52098 | -42.18810 | 5403 ft | 167 kts | 336° |
| 2026-04-14 15:06 | -11.51072 | -42.19358 | 5392 ft | 165 kts | 337° |
| 2026-04-14 15:07 | -11.50070 | -42.19892 | 5399 ft | 165 kts | 336° |
| 2026-04-14 15:07 | -11.49051 | -42.20434 | 5398 ft | 165 kts | 336° |
| 2026-04-14 15:07 | -11.48032 | -42.20972 | 5399 ft | 165 kts | 338° |
| 2026-04-14 15:07 | -11.47011 | -42.21514 | 5396 ft | 166 kts | 336° |
| 2026-04-14 15:08 | -11.45974 | -42.22045 | 5395 ft | 167 kts | 337° |
| 2026-04-14 15:08 | -11.44937 | -42.22560 | 5391 ft | 164 kts | 337° |
| 2026-04-14 15:08 | -11.43915 | -42.23074 | 5390 ft | 164 kts | 338° |
| 2026-04-14 15:08 | -11.42894 | -42.23608 | 5393 ft | 166 kts | 336° |
| 2026-04-14 15:09 | -11.41866 | -42.24154 | 5388 ft | 166 kts | 336° |
| 2026-04-14 15:09 | -11.40843 | -42.24703 | 5397 ft | 166 kts | 336° |
| 2026-04-14 15:09 | -11.39812 | -42.25256 | 5403 ft | 168 kts | 336° |
| 2026-04-14 15:09 | -11.38769 | -42.25807 | 5392 ft | 169 kts | 336° |
| 2026-04-14 15:10 | -11.37725 | -42.26350 | 5401 ft | 169 kts | 336° |
| 2026-04-14 15:10 | -11.36680 | -42.26883 | 5402 ft | 171 kts | 337° |
| 2026-04-14 15:10 | -11.35609 | -42.27426 | 5394 ft | 172 kts | 337° |
| 2026-04-14 15:10 | -11.34551 | -42.27971 | 5401 ft | 170 kts | 337° |
| 2026-04-14 15:11 | -11.33504 | -42.28516 | 5396 ft | 168 kts | 337° |
| 2026-04-14 15:11 | -11.32469 | -42.29058 | 5399 ft | 168 kts | 336° |
| 2026-04-14 15:11 | -11.31419 | -42.29605 | 5393 ft | 171 kts | 336° |
| 2026-04-14 15:11 | -11.30362 | -42.30164 | 5400 ft | 171 kts | 336° |
| 2026-04-14 15:12 | -11.29297 | -42.30727 | 5397 ft | 173 kts | 336° |
| 2026-04-14 15:12 | -11.28228 | -42.31292 | 5401 ft | 174 kts | 336° |
| 2026-04-14 15:12 | -11.27175 | -42.31847 | 5400 ft | 172 kts | 336° |
| 2026-04-14 15:12 | -11.26139 | -42.32460 | 5387 ft | 175 kts | 324° |
| 2026-04-14 15:13 | -11.25252 | -42.33310 | 5389 ft | 175 kts | 319° |
| 2026-04-14 15:13 | -11.24377 | -42.34180 | 5385 ft | 175 kts | 318° |
| 2026-04-14 15:13 | -11.23508 | -42.35042 | 5385 ft | 175 kts | 319° |
| 2026-04-14 15:13 | -11.22624 | -42.35904 | 5390 ft | 177 kts | 319° |
| 2026-04-14 15:14 | -11.21738 | -42.36772 | 5385 ft | 177 kts | 318° |
| 2026-04-14 15:14 | -11.20852 | -42.37645 | 5383 ft | 177 kts | 319° |
| 2026-04-14 15:14 | -11.19962 | -42.38516 | 5387 ft | 178 kts | 318° |
| 2026-04-14 15:14 | -11.19071 | -42.39393 | 5387 ft | 178 kts | 318° |
| 2026-04-14 15:15 | -11.18182 | -42.40268 | 5386 ft | 178 kts | 318° |
| 2026-04-14 15:15 | -11.17291 | -42.41151 | 5385 ft | 179 kts | 317° |
| 2026-04-14 15:15 | -11.16394 | -42.42036 | 5384 ft | 179 kts | 318° |
| 2026-04-14 15:15 | -11.15496 | -42.42921 | 5391 ft | 180 kts | 318° |
| 2026-04-14 15:16 | -11.14601 | -42.43807 | 5385 ft | 180 kts | 318° |
| 2026-04-14 15:16 | -11.13711 | -42.44679 | 5387 ft | 181 kts | 318° |
| 2026-04-14 15:16 | -11.12801 | -42.45572 | 5384 ft | 180 kts | 317° |
| 2026-04-14 15:16 | -11.11890 | -42.46454 | 5388 ft | 182 kts | 318° |
| 2026-04-14 15:17 | -11.10969 | -42.47347 | 5387 ft | 183 kts | 317° |
| 2026-04-14 15:17 | -11.10061 | -42.48221 | 5375 ft | 177 kts | 319° |
| 2026-04-14 15:17 | -11.09175 | -42.49086 | 5374 ft | 176 kts | 318° |
| 2026-04-14 15:17 | -11.08284 | -42.49956 | 5380 ft | 179 kts | 317° |
| 2026-04-14 15:18 | -11.07364 | -42.50849 | 5299 ft | 184 kts | 317° |
| 2026-04-14 15:18 | -11.06466 | -42.51720 | 5207 ft | 179 kts | 318° |
| 2026-04-14 15:18 | -11.05578 | -42.52581 | 5142 ft | 176 kts | 319° |
| 2026-04-14 15:18 | -11.04695 | -42.53455 | 5078 ft | 178 kts | 317° |
| 2026-04-14 15:19 | -11.03795 | -42.54347 | 5010 ft | 183 kts | 318° |
| 2026-04-14 15:19 | -11.02882 | -42.55256 | 4936 ft | 182 kts | 318° |
| 2026-04-14 15:19 | -11.01965 | -42.56157 | 4869 ft | 185 kts | 318° |
| 2026-04-14 15:19 | -11.01017 | -42.57032 | 4774 ft | 182 kts | 330° |
| 2026-04-14 15:20 | -10.99849 | -42.57495 | 4694 ft | 180 kts | 346° |
| 2026-04-14 15:20 | -10.98645 | -42.57897 | 4498 ft | 185 kts | 345° |
| 2026-04-14 15:20 | -10.97416 | -42.58313 | 4254 ft | 186 kts | 347° |
| 2026-04-14 15:20 | -10.96199 | -42.58737 | 4024 ft | 186 kts | 346° |
| 2026-04-14 15:21 | -10.94989 | -42.59168 | 3783 ft | 186 kts | 346° |
| 2026-04-14 15:21 | -10.93764 | -42.59616 | 3552 ft | 189 kts | 345° |
| 2026-04-14 15:21 | -10.92509 | -42.60063 | 3312 ft | 192 kts | 345° |
| 2026-04-14 15:21 | -10.91341 | -42.60744 | 3059 ft | 195 kts | 328° |
| 2026-04-14 15:22 | -10.90442 | -42.61785 | 2782 ft | 200 kts | 302° |
| 2026-04-14 15:22 | -10.89712 | -42.62975 | 2624 ft | 196 kts | 306° |
| 2026-04-14 15:22 | -10.88963 | -42.64115 | 2507 ft | 193 kts | 306° |
| 2026-04-14 15:22 | -10.88114 | -42.65142 | 2359 ft | 188 kts | 329° |
| 2026-04-14 15:23 | -10.86921 | -42.65583 | 2220 ft | 179 kts | 351° |
| 2026-04-14 15:23 | -10.85741 | -42.65908 | 2233 ft | 174 kts | 349° |
| 2026-04-14 15:23 | -10.84555 | -42.66222 | 2233 ft | 177 kts | 351° |
| 2026-04-14 15:23 | -10.83363 | -42.66458 | 2212 ft | 174 kts | 0° |
| 2026-04-14 15:24 | -10.82278 | -42.67007 | 2157 ft | 184 kts | 317° |
| 2026-04-14 15:24 | -10.81825 | -42.68224 | 2105 ft | 186 kts | 275° |
| 2026-04-14 15:24 | -10.81709 | -42.69524 | 2127 ft | 186 kts | 275° |
| 2026-04-14 15:24 | -10.81588 | -42.70839 | 2107 ft | 185 kts | 275° |
| 2026-04-14 15:25 | -10.81470 | -42.72127 | 2126 ft | 182 kts | 274° |
| 2026-04-14 15:25 | -10.81581 | -42.73396 | 2079 ft | 181 kts | 244° |
| 2026-04-14 15:25 | -10.82457 | -42.74218 | 2015 ft | 170 kts | 199° |
| 2026-04-14 15:25 | -10.83559 | -42.74421 | 2004 ft | 158 kts | 184° |
| 2026-04-14 15:26 | -10.84570 | -42.74253 | 1950 ft | 144 kts | 141° |
| 2026-04-14 15:26 | -10.84985 | -42.73399 | 1909 ft | 138 kts | 96° |
| 2026-04-14 15:26 | -10.85039 | -42.72409 | 1926 ft | 142 kts | 93° |
| 2026-04-14 15:26 | -10.84759 | -42.71510 | 1854 ft | 132 kts | 51° |
| 2026-04-14 15:27 | -10.83989 | -42.71100 | 1817 ft | 117 kts | 27° |
| 2026-04-14 15:27 | -10.83286 | -42.70756 | 1795 ft | 111 kts | 30° |
| 2026-04-14 15:27 | -10.82613 | -42.70380 | 1719 ft | 107 kts | 49° |
| 2026-04-14 15:27 | -10.82631 | -42.69819 | 1857 ft | 76 kts | 125° |
| 2026-04-14 15:28 | -10.82952 | -42.69380 | 1599 ft | 77 kts | 119° |
| 2026-04-14 15:28 | -10.83182 | -42.68916 | 1431 ft | 72 kts | 113° |
| 2026-04-14 15:28 | -10.83349 | -42.68494 | 1401 ft | 49 kts | 128° |
| 2026-04-14 15:28 | -10.83376 | -42.68423 | 1402 ft | 9 kts | 282° |
| 2026-04-14 15:29 | -10.83336 | -42.68524 | 1404 ft | 20 kts | 286° |
| 2026-04-14 15:29 | -10.83253 | -42.68529 | 1403 ft | 14 kts | 30° |
| 2026-04-14 15:29 | -10.83242 | -42.68536 | 1399 ft | 0 kts | 178° |